Time;durP1;ratioP1;P1;durP2;ratioP2;P2;SDS_P1;SDS_P2;PMS_P1;PMS_P2;Temp;Humidity;BMP_temperature;BMP_pressure;BME280_temperature;BME280_humidity;BME280_pressure;Samples;Min_cycle;Max_cycle;Signal;HPM_P1;HPM_P2
2022/11/01 00:02:04;;;;;;;39.00;21.85;;;;;;;;;;5033366;28;20391;-71
2022/11/01 00:04:29;;;;;;;37.50;18.83;;;;;;;;;;5031594;28;20108;-72
2022/11/01 00:06:55;;;;;;;36.03;18.23;;;;;;;;;;5029282;28;20431;-72
2022/11/01 00:09:21;;;;;;;34.08;19.40;;;;;;;;;;5033264;28;20022;-72
2022/11/01 00:11:47;;;;;;;33.40;17.92;;;;;;;;;;5033878;28;20071;-72
2022/11/01 00:14:15;;;;;;;33.22;17.30;;;;;;;;;;5034328;28;20064;-72
2022/11/01 00:16:41;;;;;;;31.17;18.08;;;;;;;;;;5042489;28;20035;-73
2022/11/01 00:19:07;;;;;;;32.15;17.65;;;;;;;;;;5035820;28;20026;-72
2022/11/01 00:21:33;;;;;;;30.80;17.42;;;;;;;;;;5041285;28;20096;-72
2022/11/01 00:23:59;;;;;;;33.70;17.33;;;;;;;;;;5040645;28;20049;-71
2022/11/01 00:26:25;;;;;;;28.35;17.90;;;;;;;;;;5032699;28;20043;-72
2022/11/01 00:28:51;;;;;;;33.15;17.77;;;;;;;;;;5049024;28;20060;-72
2022/11/01 00:31:19;;;;;;;37.35;20.95;;;;;;;;;;5044906;28;20033;-71
2022/11/01 00:33:45;;;;;;;38.63;19.17;;;;;;;;;;5049218;28;20068;-72
2022/11/01 00:36:11;;;;;;;35.88;19.05;;;;;;;;;;5050939;28;20056;-72
2022/11/01 00:38:37;;;;;;;36.45;19.85;;;;;;;;;;5033948;28;20021;-73
2022/11/01 00:41:04;;;;;;;35.95;20.45;;;;;;;;;;5033230;28;20033;-73
2022/11/01 00:43:31;;;;;;;33.55;20.25;;;;;;;;;;5033741;28;20037;-73
2022/11/01 00:45:57;;;;;;;41.03;20.90;;;;;;;;;;5034054;28;20114;-72
2022/11/01 00:48:23;;;;;;;33.70;20.33;;;;;;;;;;5034123;28;20391;-72
2022/11/01 00:50:49;;;;;;;35.58;21.60;;;;;;;;;;5049409;28;20033;-72
2022/11/01 00:53:15;;;;;;;43.08;22.92;;;;;;;;;;5038867;28;20031;-72
2022/11/01 00:55:41;;;;;;;43.17;23.33;;;;;;;;;;5053889;28;20384;-72
2022/11/01 00:58:08;;;;;;;37.08;22.10;;;;;;;;;;5034389;28;20021;-72
2022/11/01 01:00:34;;;;;;;47.47;23.77;;;;;;;;;;5030982;28;20041;-72
2022/11/01 01:03:01;;;;;;;57.88;26.30;;;;;;;;;;5033435;28;20493;-72
2022/11/01 01:05:27;;;;;;;42.33;24.63;;;;;;;;;;5033779;28;20052;-72
2022/11/01 01:07:53;;;;;;;39.50;24.63;;;;;;;;;;5034429;28;20447;-72
2022/11/01 01:10:19;;;;;;;44.20;24.20;;;;;;;;;;5033496;28;20039;-72
2022/11/01 01:12:45;;;;;;;48.45;26.70;;;;;;;;;;5014919;28;20021;-72
2022/11/01 01:15:11;;;;;;;39.30;22.42;;;;;;;;;;5032208;28;20532;-72
2022/11/01 01:17:36;;;;;;;39.03;23.33;;;;;;;;;;5032524;28;20021;-72
2022/11/01 01:20:03;;;;;;;45.83;23.73;;;;;;;;;;5033527;28;20047;-72
2022/11/01 01:22:29;;;;;;;41.95;24.73;;;;;;;;;;5033506;28;20104;-72
2022/11/01 01:24:55;;;;;;;44.10;25.40;;;;;;;;;;5032738;28;20576;-72
2022/11/01 01:27:21;;;;;;;47.13;25.05;;;;;;;;;;5033286;28;20423;-72
2022/11/01 01:29:47;;;;;;;42.45;24.73;;;;;;;;;;5033279;28;20064;-72
2022/11/01 01:32:19;;;;;;;49.63;25.45;;;;;;;;;;5033309;28;20622;-72
2022/11/01 01:34:45;;;;;;;43.85;26.58;;;;;;;;;;5031708;28;20453;-72
2022/11/01 01:37:12;;;;;;;50.15;26.85;;;;;;;;;;5034056;28;20014;-72
2022/11/01 01:39:38;;;;;;;44.55;27.60;;;;;;;;;;5033882;28;20085;-72
2022/11/01 01:42:29;;;;;;;46.13;28.15;;;;;;;;;;5033922;28;20041;-73
2022/11/01 01:44:54;;;;;;;40.47;24.42;;;;;;;;;;5031604;28;20068;-72
2022/11/01 01:47:30;;;;;;;38.70;25.40;;;;;;;;;;5032405;28;20056;-72
2022/11/01 01:50:14;;;;;;;41.70;24.70;;;;;;;;;;5014819;28;20034;-71
2022/11/01 01:53:02;;;;;;;41.28;24.35;;;;;;;;;;5030320;28;20073;-71
2022/11/01 01:55:43;;;;;;;47.63;26.90;;;;;;;;;;5029451;28;20083;-71
2022/11/01 01:58:12;;;;;;;49.45;27.35;;;;;;;;;;5031455;28;20026;-72
2022/11/01 02:00:38;;;;;;;45.17;25.83;;;;;;;;;;5032030;28;20033;-71
2022/11/01 02:03:05;;;;;;;45.88;25.55;;;;;;;;;;5032027;28;20029;-73
2022/11/01 02:06:05;;;;;;;50.58;26.42;;;;;;;;;;5031378;28;20017;-72
2022/11/01 02:08:32;;;;;;;49.08;26.10;;;;;;;;;;5021906;28;20119;-72
2022/11/01 02:11:04;;;;;;;54.17;26.48;;;;;;;;;;5025740;28;20029;-72
2022/11/01 02:13:31;;;;;;;53.08;27.70;;;;;;;;;;5027096;28;20544;-72
2022/11/01 02:16:33;;;;;;;51.10;27.48;;;;;;;;;;5023896;28;20688;-72
2022/11/01 02:18:59;;;;;;;50.50;27.30;;;;;;;;;;5023405;28;20064;-72
2022/11/01 02:21:43;;;;;;;49.53;27.60;;;;;;;;;;5027021;28;20049;-72
2022/11/01 02:24:12;;;;;;;43.85;26.30;;;;;;;;;;5025083;28;20069;-72
2022/11/01 02:26:56;;;;;;;47.75;25.42;;;;;;;;;;5025998;28;20116;-72
2022/11/01 02:29:28;;;;;;;50.83;26.48;;;;;;;;;;5022412;28;20033;-73
2022/11/01 02:32:03;;;;;;;52.60;25.73;;;;;;;;;;5023146;28;20069;-72
2022/11/01 02:34:40;;;;;;;42.00;24.15;;;;;;;;;;5025702;28;20028;-73
2022/11/01 02:37:09;;;;;;;44.05;25.65;;;;;;;;;;5024478;28;20034;-73
2022/11/01 02:39:40;;;;;;;53.38;26.55;;;;;;;;;;5029871;28;20568;-72
2022/11/01 02:42:13;;;;;;;44.58;25.30;;;;;;;;;;5023187;28;20522;-72
2022/11/01 02:44:47;;;;;;;46.72;26.27;;;;;;;;;;5023531;28;20034;-72
2022/11/01 02:47:14;;;;;;;43.83;27.02;;;;;;;;;;5026148;28;20044;-72
2022/11/01 02:49:43;;;;;;;53.97;25.45;;;;;;;;;;5028217;28;20021;-72
2022/11/01 02:52:13;;;;;;;44.08;25.40;;;;;;;;;;5026333;28;20043;-72
2022/11/01 02:54:43;;;;;;;52.72;27.48;;;;;;;;;;5024980;28;20045;-72
2022/11/01 02:57:39;;;;;;;46.05;27.05;;;;;;;;;;5023214;28;20041;-73
2022/11/01 03:00:28;;;;;;;42.15;24.38;;;;;;;;;;5022486;28;20060;-72
2022/11/01 03:03:18;;;;;;;45.60;26.42;;;;;;;;;;5025008;28;20067;-72
2022/11/01 03:05:53;;;;;;;42.63;24.50;;;;;;;;;;5021209;28;20029;-72
2022/11/01 03:08:27;;;;;;;49.35;26.35;;;;;;;;;;5027964;28;20120;-73
2022/11/01 03:11:02;;;;;;;48.08;27.67;;;;;;;;;;5022761;28;20052;-72
2022/11/01 03:13:46;;;;;;;44.55;25.45;;;;;;;;;;5022990;28;20056;-72
2022/11/01 03:16:29;;;;;;;50.50;26.15;;;;;;;;;;5022319;28;20041;-73
2022/11/01 03:19:04;;;;;;;41.83;27.37;;;;;;;;;;5027374;28;20087;-72
2022/11/01 03:21:37;;;;;;;45.33;25.60;;;;;;;;;;5025588;28;20052;-72
2022/11/01 03:24:14;;;;;;;45.78;26.55;;;;;;;;;;5021996;28;20057;-73
2022/11/01 03:26:42;;;;;;;43.53;26.65;;;;;;;;;;5022179;28;20079;-73
2022/11/01 03:29:10;;;;;;;45.50;26.67;;;;;;;;;;5021967;28;20370;-72
2022/11/01 03:31:39;;;;;;;51.47;27.00;;;;;;;;;;5021930;28;20033;-72
2022/11/01 03:34:10;;;;;;;46.97;26.15;;;;;;;;;;5018356;28;20053;-72
2022/11/01 03:36:41;;;;;;;51.55;27.77;;;;;;;;;;5010373;28;20034;-72
2022/11/01 03:39:19;;;;;;;50.53;27.95;;;;;;;;;;4991224;28;20048;-72
2022/11/01 03:41:50;;;;;;;51.83;28.63;;;;;;;;;;5011894;28;20061;-72
2022/11/01 03:44:17;;;;;;;56.28;29.02;;;;;;;;;;5011849;28;20476;-72
2022/11/01 03:46:43;;;;;;;47.17;27.75;;;;;;;;;;5011379;28;20018;-72
2022/11/01 03:49:09;;;;;;;46.92;27.77;;;;;;;;;;5011012;28;20503;-71
2022/11/01 03:51:36;;;;;;;53.95;27.67;;;;;;;;;;5011563;28;20053;-72
2022/11/01 03:54:28;;;;;;;54.38;27.00;;;;;;;;;;5027660;28;20505;-73
2022/11/01 03:56:54;;;;;;;53.85;26.67;;;;;;;;;;5001009;28;20090;-72
2022/11/01 03:59:22;;;;;;;52.03;28.05;;;;;;;;;;5031382;28;20494;-72
2022/11/01 04:01:48;;;;;;;47.83;27.88;;;;;;;;;;5031234;28;20483;-72
2022/11/01 04:04:14;;;;;;;49.13;27.40;;;;;;;;;;5030919;28;20036;-72
2022/11/01 04:06:40;;;;;;;51.58;27.77;;;;;;;;;;5030954;28;20037;-73
2022/11/01 04:09:06;;;;;;;48.20;25.92;;;;;;;;;;5030754;28;20037;-73
2022/11/01 04:11:32;;;;;;;41.97;25.20;;;;;;;;;;5030876;28;20033;-72
2022/11/01 04:22:11;;;;;;;48.15;26.67;;;;;;;;;;5030845;28;20148;-72
2022/11/01 04:24:37;;;;;;;50.13;25.38;;;;;;;;;;5030805;28;20163;-72
2022/11/01 04:27:03;;;;;;;54.53;26.65;;;;;;;;;;5030745;28;20036;-72
2022/11/01 04:29:29;;;;;;;40.70;25.15;;;;;;;;;;5030857;28;20033;-73
2022/11/01 04:31:54;;;;;;;43.92;26.00;;;;;;;;;;5031137;28;20030;-74
2022/11/01 04:34:41;;;;;;;40.53;23.88;;;;;;;;;;5030639;28;20471;-72
2022/11/01 04:37:07;;;;;;;46.30;25.55;;;;;;;;;;5031463;28;20068;-72
2022/11/01 04:39:33;;;;;;;39.15;25.00;;;;;;;;;;5030446;28;20411;-73
2022/11/01 04:41:59;;;;;;;45.15;25.20;;;;;;;;;;5030326;28;20099;-73
2022/11/01 04:44:25;;;;;;;39.75;24.00;;;;;;;;;;5030726;28;20029;-72
2022/11/01 04:46:50;;;;;;;42.33;25.25;;;;;;;;;;5027347;28;20058;-72
2022/11/01 04:49:16;;;;;;;45.45;25.55;;;;;;;;;;5029676;28;20045;-73
2022/11/01 04:51:42;;;;;;;45.50;25.40;;;;;;;;;;5031286;28;20462;-73
2022/11/01 04:54:08;;;;;;;46.40;25.25;;;;;;;;;;5033642;28;20042;-72
2022/11/01 04:56:34;;;;;;;59.25;29.02;;;;;;;;;;5034122;28;20029;-72
2022/11/01 04:58:59;;;;;;;51.22;28.02;;;;;;;;;;5033550;28;20032;-73
2022/11/01 05:01:25;;;;;;;50.15;25.90;;;;;;;;;;5035695;28;20033;-72
2022/11/01 05:03:51;;;;;;;56.22;27.95;;;;;;;;;;5053108;28;20021;-72
2022/11/01 05:06:17;;;;;;;59.00;27.33;;;;;;;;;;5040129;28;20124;-72
2022/11/01 05:08:43;;;;;;;70.72;27.50;;;;;;;;;;5030454;28;20626;-73
2022/11/01 05:11:09;;;;;;;53.58;26.27;;;;;;;;;;5032998;28;20108;-72
2022/11/01 05:13:35;;;;;;;40.95;26.30;;;;;;;;;;5033453;28;20117;-72
2022/11/01 05:16:04;;;;;;;44.88;24.10;;;;;;;;;;5033580;28;20037;-73
2022/11/01 05:18:30;;;;;;;51.28;27.17;;;;;;;;;;5033428;28;20124;-73
2022/11/01 05:20:56;;;;;;;52.00;26.27;;;;;;;;;;5033626;28;20143;-72
2022/11/01 05:23:22;;;;;;;44.28;26.90;;;;;;;;;;5033205;28;20080;-72
2022/11/01 05:25:48;;;;;;;43.83;23.60;;;;;;;;;;5033339;28;20060;-73
2022/11/01 05:28:13;;;;;;;38.72;23.55;;;;;;;;;;5032593;28;20091;-73
2022/11/01 05:30:41;;;;;;;43.22;25.42;;;;;;;;;;5032849;28;20108;-73
2022/11/01 05:33:09;;;;;;;46.20;26.92;;;;;;;;;;5032872;28;20049;-72
2022/11/01 05:35:36;;;;;;;45.70;24.67;;;;;;;;;;5032098;28;20159;-72
2022/11/01 05:38:03;;;;;;;44.28;25.23;;;;;;;;;;5041459;28;20024;-74
2022/11/01 05:40:30;;;;;;;47.40;23.80;;;;;;;;;;5041667;28;20044;-73
2022/11/01 05:42:56;;;;;;;39.05;22.65;;;;;;;;;;5032364;28;20025;-73
2022/11/01 05:45:22;;;;;;;39.25;23.35;;;;;;;;;;5031535;28;20508;-73
2022/11/01 05:47:48;;;;;;;46.88;22.40;;;;;;;;;;5015030;28;20061;-73
2022/11/01 05:50:15;;;;;;;44.05;24.40;;;;;;;;;;5032255;28;20069;-72
2022/11/01 05:52:42;;;;;;;38.40;22.65;;;;;;;;;;5028784;28;20096;-73
2022/11/01 05:55:10;;;;;;;39.15;23.95;;;;;;;;;;5031669;28;20115;-74
2022/11/01 05:57:36;;;;;;;39.92;22.00;;;;;;;;;;5031692;28;20487;-73
2022/11/01 06:00:05;;;;;;;38.65;22.58;;;;;;;;;;5031786;28;20483;-72
2022/11/01 06:02:40;;;;;;;36.40;21.75;;;;;;;;;;5014692;28;20029;-74
2022/11/01 06:05:10;;;;;;;34.45;20.33;;;;;;;;;;5036852;28;20021;-73
2022/11/01 06:07:36;;;;;;;28.02;19.77;;;;;;;;;;5029574;28;20682;-72
2022/11/01 06:10:03;;;;;;;38.53;20.65;;;;;;;;;;5023281;28;20037;-73
2022/11/01 06:12:29;;;;;;;35.55;20.17;;;;;;;;;;5023970;28;20061;-73
2022/11/01 06:14:54;;;;;;;37.63;19.88;;;;;;;;;;5025311;28;20029;-74
2022/11/01 06:17:20;;;;;;;35.88;19.55;;;;;;;;;;5025385;28;20192;-73
2022/11/01 06:19:46;;;;;;;41.75;19.52;;;;;;;;;;5031935;28;20392;-72
2022/11/01 06:22:12;;;;;;;36.63;20.52;;;;;;;;;;5032513;28;20103;-72
2022/11/01 06:24:38;;;;;;;32.35;18.75;;;;;;;;;;5013616;28;20052;-73
2022/11/01 06:27:04;;;;;;;36.92;21.83;;;;;;;;;;5023606;28;20057;-73
2022/11/01 06:29:30;;;;;;;32.63;21.27;;;;;;;;;;5022546;28;20030;-73
2022/11/01 06:31:55;;;;;;;37.65;22.08;;;;;;;;;;5022042;28;20380;-73
2022/11/01 06:34:21;;;;;;;40.45;20.80;;;;;;;;;;5020701;28;20573;-73
2022/11/01 06:36:47;;;;;;;35.97;19.65;;;;;;;;;;5025088;28;20025;-73
2022/11/01 06:39:13;;;;;;;32.03;18.08;;;;;;;;;;5019967;28;20091;-74
2022/11/01 06:41:40;;;;;;;38.13;18.13;;;;;;;;;;5025889;28;20409;-73
2022/11/01 06:44:06;;;;;;;26.00;14.93;;;;;;;;;;5007957;28;20034;-74
2022/11/01 06:46:33;;;;;;;28.67;14.85;;;;;;;;;;5024789;28;20029;-72
2022/11/01 06:48:58;;;;;;;26.75;16.70;;;;;;;;;;5026647;28;20033;-72
2022/11/01 06:51:25;;;;;;;37.60;16.52;;;;;;;;;;5025370;28;20048;-74
2022/11/01 06:53:50;;;;;;;29.67;16.27;;;;;;;;;;5047222;28;20024;-73
2022/11/01 06:56:16;;;;;;;32.50;16.27;;;;;;;;;;5032027;28;20079;-72
2022/11/01 06:58:42;;;;;;;35.10;16.20;;;;;;;;;;5031989;28;20036;-73
2022/11/01 07:01:08;;;;;;;27.02;16.30;;;;;;;;;;5027408;28;20043;-73
2022/11/01 07:03:33;;;;;;;29.90;16.48;;;;;;;;;;5022687;28;20018;-74
2022/11/01 07:05:59;;;;;;;27.20;16.20;;;;;;;;;;5021892;28;20030;-74
2022/11/01 07:08:25;;;;;;;29.92;16.10;;;;;;;;;;5028972;28;20106;-73
2022/11/01 07:10:51;;;;;;;24.92;15.20;;;;;;;;;;5020113;28;20028;-73
2022/11/01 07:13:17;;;;;;;33.95;16.08;;;;;;;;;;5012091;28;20116;-74
2022/11/01 07:15:43;;;;;;;28.48;15.20;;;;;;;;;;5024950;28;20045;-75
2022/11/01 07:18:09;;;;;;;27.85;16.95;;;;;;;;;;5022161;28;20022;-74
2022/11/01 07:20:42;;;;;;;29.67;17.05;;;;;;;;;;5021105;28;20034;-72
2022/11/01 07:23:14;;;;;;;32.03;17.48;;;;;;;;;;5019882;28;20072;-73
2022/11/01 07:25:41;;;;;;;28.10;16.13;;;;;;;;;;5020420;28;20040;-73
2022/11/01 07:28:07;;;;;;;27.88;17.02;;;;;;;;;;5029389;28;20040;-73
2022/11/01 07:30:34;;;;;;;27.80;17.27;;;;;;;;;;5026626;28;20037;-72
2022/11/01 07:33:02;;;;;;;29.98;18.33;;;;;;;;;;5028143;28;20523;-73
2022/11/01 07:35:29;;;;;;;30.10;18.23;;;;;;;;;;5029263;28;20355;-72
2022/11/01 07:37:59;;;;;;;33.25;20.45;;;;;;;;;;5030596;28;20379;-71
2022/11/01 07:40:26;;;;;;;36.90;22.65;;;;;;;;;;5025134;28;20049;-76
2022/11/01 07:42:55;;;;;;;35.03;20.27;;;;;;;;;;5024933;28;20044;-74
2022/11/01 07:45:21;;;;;;;34.65;19.63;;;;;;;;;;5018838;28;20053;-74
2022/11/01 07:47:47;;;;;;;37.30;20.70;;;;;;;;;;5031704;28;20510;-75
2022/11/01 07:50:13;;;;;;;34.90;19.02;;;;;;;;;;5013350;28;20105;-72
2022/11/01 07:52:39;;;;;;;32.28;17.67;;;;;;;;;;5029798;28;20174;-72
2022/11/01 07:55:05;;;;;;;75.97;22.30;;;;;;;;;;5011240;28;20037;-73
2022/11/01 07:57:37;;;;;;;37.85;19.48;;;;;;;;;;5020939;28;20032;-73
2022/11/01 08:00:03;;;;;;;32.80;18.85;;;;;;;;;;5021611;28;20049;-74
2022/11/01 08:02:38;;;;;;;28.42;18.60;;;;;;;;;;5023884;28;20025;-73
2022/11/01 08:05:04;;;;;;;36.22;18.73;;;;;;;;;;5023052;28;20130;-74
2022/11/01 08:07:30;;;;;;;43.17;19.05;;;;;;;;;;5037964;28;20021;-75
2022/11/01 08:09:56;;;;;;;33.25;19.02;;;;;;;;;;5050746;28;20452;-74
2022/11/01 08:12:22;;;;;;;38.20;18.77;;;;;;;;;;5024462;28;20057;-74
2022/11/01 08:14:47;;;;;;;31.42;17.98;;;;;;;;;;5011442;28;20157;-74
2022/11/01 08:17:13;;;;;;;32.30;18.58;;;;;;;;;;5029190;28;20037;-75
2022/11/01 08:19:39;;;;;;;32.05;17.30;;;;;;;;;;5029392;28;20038;-74
2022/11/01 08:22:05;;;;;;;29.50;18.33;;;;;;;;;;5005724;28;20418;-74
2022/11/01 08:24:31;;;;;;;31.30;18.40;;;;;;;;;;5018017;28;20045;-74
2022/11/01 08:26:57;;;;;;;35.80;20.15;;;;;;;;;;5018343;28;20597;-75
2022/11/01 08:29:23;;;;;;;37.92;20.08;;;;;;;;;;5033104;28;20051;-75
2022/11/01 08:31:48;;;;;;;40.25;22.40;;;;;;;;;;5033943;28;20033;-73
2022/11/01 08:34:14;;;;;;;37.50;20.92;;;;;;;;;;5033643;28;20037;-74
2022/11/01 08:36:40;;;;;;;35.22;20.70;;;;;;;;;;5027388;28;20025;-74
2022/11/01 08:39:06;;;;;;;35.70;21.25;;;;;;;;;;5032055;28;20029;-76
2022/11/01 08:41:32;;;;;;;41.20;20.48;;;;;;;;;;5022108;28;20032;-74
2022/11/01 08:43:58;;;;;;;41.05;22.42;;;;;;;;;;5020564;28;20064;-75
2022/11/01 08:46:23;;;;;;;37.80;21.88;;;;;;;;;;5018717;28;20463;-74
2022/11/01 08:48:55;;;;;;;35.90;22.10;;;;;;;;;;5030152;28;20037;-74
2022/11/01 08:51:25;;;;;;;40.25;23.27;;;;;;;;;;5032368;28;20030;-74
2022/11/01 08:53:59;;;;;;;47.42;24.55;;;;;;;;;;5033864;28;20458;-74
2022/11/01 08:56:26;;;;;;;40.00;24.77;;;;;;;;;;5033651;28;20037;-74
2022/11/01 08:58:53;;;;;;;42.22;25.02;;;;;;;;;;5016195;28;20030;-76
2022/11/01 09:01:20;;;;;;;39.45;23.33;;;;;;;;;;5014882;28;20116;-76
2022/11/01 09:03:46;;;;;;;40.90;24.98;;;;;;;;;;5034086;28;20028;-76
2022/11/01 09:06:13;;;;;;;39.17;23.00;;;;;;;;;;5015855;28;20391;-75
2022/11/01 09:08:39;;;;;;;30.20;18.55;;;;;;;;;;5032997;28;20025;-75
2022/11/01 09:11:05;;;;;;;32.70;19.33;;;;;;;;;;5016082;28;20453;-76
2022/11/01 09:13:32;;;;;;;35.30;20.38;;;;;;;;;;5033615;28;20152;-76
2022/11/01 09:16:03;;;;;;;34.95;21.83;;;;;;;;;;5033865;28;20098;-76
2022/11/01 09:18:29;;;;;;;37.22;19.75;;;;;;;;;;5034126;28;20025;-76
2022/11/01 09:20:55;;;;;;;30.90;17.00;;;;;;;;;;5033285;28;20026;-76
2022/11/01 09:23:21;;;;;;;23.38;13.25;;;;;;;;;;5033868;28;20402;-74
2022/11/01 09:25:47;;;;;;;26.92;14.18;;;;;;;;;;5033230;28;20049;-76
2022/11/01 09:28:13;;;;;;;34.25;16.23;;;;;;;;;;5033448;28;20045;-77
2022/11/01 09:30:39;;;;;;;26.77;14.80;;;;;;;;;;5033739;28;20503;-74
2022/11/01 09:33:06;;;;;;;36.85;16.38;;;;;;;;;;5033242;28;20040;-75
2022/11/01 09:35:33;;;;;;;25.20;13.63;;;;;;;;;;5016112;28;20157;-75
2022/11/01 09:38:01;;;;;;;21.55;12.80;;;;;;;;;;5015455;28;20036;-75
2022/11/01 09:40:34;;;;;;;24.67;12.45;;;;;;;;;;5015224;28;20098;-74
2022/11/01 09:43:02;;;;;;;21.92;11.43;;;;;;;;;;5032516;28;20475;-76
2022/11/01 09:45:31;;;;;;;20.38;10.98;;;;;;;;;;5032701;28;20017;-74
2022/11/01 09:48:00;;;;;;;18.42;10.75;;;;;;;;;;5031656;28;20068;-75
2022/11/01 09:50:36;;;;;;;16.27;10.50;;;;;;;;;;5015500;28;20039;-75
2022/11/01 09:53:07;;;;;;;19.38;12.52;;;;;;;;;;5033046;28;20038;-75
2022/11/01 09:55:48;;;;;;;15.00;9.43;;;;;;;;;;5032837;28;20072;-75
2022/11/01 09:58:40;;;;;;;16.70;9.02;;;;;;;;;;5032646;28;20511;-76
2022/11/01 10:01:12;;;;;;;17.83;8.50;;;;;;;;;;5032714;28;20084;-76
2022/11/01 10:03:56;;;;;;;13.68;8.27;;;;;;;;;;5014720;28;20045;-76
2022/11/01 10:06:26;;;;;;;13.02;6.78;;;;;;;;;;5032671;28;20040;-76
2022/11/01 10:09:25;;;;;;;11.32;6.03;;;;;;;;;;5033269;28;20033;-76
2022/11/01 10:12:05;;;;;;;13.48;6.28;;;;;;;;;;5001348;28;20034;-76
2022/11/01 10:14:48;;;;;;;13.05;6.53;;;;;;;;;;5032661;28;20072;-75
2022/11/01 10:17:21;;;;;;;12.68;7.05;;;;;;;;;;5032737;28;20029;-76
2022/11/01 10:19:48;;;;;;;14.60;6.22;;;;;;;;;;5032404;28;20053;-76
2022/11/01 10:22:28;;;;;;;17.13;6.90;;;;;;;;;;5032649;28;20372;-77
2022/11/01 10:24:58;;;;;;;10.38;6.50;;;;;;;;;;5032000;28;20049;-75
2022/11/01 10:28:03;;;;;;;12.32;6.90;;;;;;;;;;5032658;28;20045;-75
2022/11/01 10:30:35;;;;;;;13.27;6.47;;;;;;;;;;5032765;28;20049;-75
2022/11/01 10:33:30;;;;;;;17.63;7.25;;;;;;;;;;5032399;28;20029;-76
2022/11/01 10:36:01;;;;;;;14.35;6.90;;;;;;;;;;4997886;28;20038;-76
2022/11/01 10:38:30;;;;;;;9.13;5.53;;;;;;;;;;5032215;28;20581;-77
2022/11/01 10:41:03;;;;;;;12.25;6.65;;;;;;;;;;5032367;28;20053;-75
2022/11/01 10:43:35;;;;;;;12.13;6.80;;;;;;;;;;5032147;28;20573;-76
2022/11/01 10:46:06;;;;;;;18.52;7.65;;;;;;;;;;5032079;28;20479;-76
2022/11/01 10:48:37;;;;;;;18.13;7.32;;;;;;;;;;5012268;28;20432;-77
2022/11/01 10:51:05;;;;;;;13.10;6.00;;;;;;;;;;5031039;28;20108;-77
2022/11/01 10:53:45;;;;;;;15.13;6.97;;;;;;;;;;5030732;28;20029;-76
2022/11/01 10:56:21;;;;;;;30.58;14.90;;;;;;;;;;5031414;28;20040;-78
2022/11/01 10:59:03;;;;;;;14.73;6.35;;;;;;;;;;5031891;28;20487;-77
2022/11/01 11:01:37;;;;;;;16.63;7.78;;;;;;;;;;5032008;28;20519;-76
2022/11/01 11:04:06;;;;;;;10.13;6.10;;;;;;;;;;5031512;28;20039;-76
2022/11/01 11:06:35;;;;;;;12.98;7.95;;;;;;;;;;5032121;28;20079;-77
2022/11/01 11:09:03;;;;;;;16.88;6.82;;;;;;;;;;5031715;28;20468;-75
2022/11/01 11:11:40;;;;;;;13.55;6.72;;;;;;;;;;5031729;28;20025;-74
2022/11/01 11:14:07;;;;;;;11.52;6.15;;;;;;;;;;5030846;28;20042;-74
2022/11/01 11:16:55;;;;;;;17.20;7.22;;;;;;;;;;5024176;28;20032;-75
2022/11/01 11:19:37;;;;;;;11.15;6.75;;;;;;;;;;5030392;28;20033;-76
2022/11/01 11:22:06;;;;;;;19.95;6.82;;;;;;;;;;5029487;28;20029;-75
2022/11/01 11:24:42;;;;;;;13.13;6.32;;;;;;;;;;5031327;28;20052;-76
2022/11/01 11:27:22;;;;;;;16.23;6.82;;;;;;;;;;5025882;28;20045;-76
2022/11/01 11:29:51;;;;;;;18.95;7.18;;;;;;;;;;5029881;28;20494;-75
2022/11/01 11:32:26;;;;;;;13.60;6.93;;;;;;;;;;5031455;28;20044;-75
2022/11/01 11:35:15;;;;;;;16.40;7.80;;;;;;;;;;5031676;28;20034;-75
2022/11/01 11:37:54;;;;;;;15.32;7.15;;;;;;;;;;5013694;28;20040;-75
2022/11/01 11:40:23;;;;;;;15.38;6.90;;;;;;;;;;5027041;28;20072;-74
2022/11/01 11:42:51;;;;;;;14.80;6.60;;;;;;;;;;5009908;28;20026;-74
2022/11/01 11:45:28;;;;;;;15.13;7.50;;;;;;;;;;5025554;28;20033;-75
2022/11/01 11:47:56;;;;;;;19.00;7.07;;;;;;;;;;5023725;28;20038;-75
2022/11/01 11:50:26;;;;;;;10.70;5.97;;;;;;;;;;5025796;28;20036;-74
2022/11/01 11:53:21;;;;;;;14.68;6.65;;;;;;;;;;5030782;28;20161;-74
2022/11/01 11:55:57;;;;;;;17.08;6.63;;;;;;;;;;5013844;28;20041;-73
2022/11/01 11:58:55;;;;;;;13.38;8.32;;;;;;;;;;5029875;28;20052;-76
2022/11/01 12:01:25;;;;;;;11.05;6.40;;;;;;;;;;5012343;28;20045;-76
2022/11/01 12:03:56;;;;;;;14.02;8.15;;;;;;;;;;5024444;28;20117;-76
2022/11/01 12:06:25;;;;;;;12.13;6.97;;;;;;;;;;5015875;28;20472;-75
2022/11/01 12:08:53;;;;;;;12.30;6.43;;;;;;;;;;5015643;28;20498;-75
2022/11/01 12:11:24;;;;;;;18.45;6.80;;;;;;;;;;5015275;28;20091;-75
2022/11/01 12:14:02;;;;;;;12.25;6.30;;;;;;;;;;5014217;28;20034;-74
2022/11/01 12:16:28;;;;;;;11.80;6.43;;;;;;;;;;5015521;28;20093;-74
2022/11/01 12:18:59;;;;;;;11.55;6.22;;;;;;;;;;5014478;28;20021;-75
2022/11/01 12:21:38;;;;;;;15.85;6.53;;;;;;;;;;5015445;28;20069;-75
2022/11/01 12:24:27;;;;;;;12.85;7.20;;;;;;;;;;5015441;28;20381;-76
2022/11/01 12:27:02;;;;;;;18.73;7.68;;;;;;;;;;5047513;28;20037;-75
2022/11/01 12:29:37;;;;;;;15.13;6.63;;;;;;;;;;5015648;28;20113;-76
2022/11/01 12:32:13;;;;;;;10.27;6.00;;;;;;;;;;5015879;28;20037;-76
2022/11/01 12:34:40;;;;;;;12.63;6.15;;;;;;;;;;5015319;28;20483;-76
2022/11/01 12:37:14;;;;;;;12.85;6.63;;;;;;;;;;5015513;28;20101;-74
2022/11/01 12:39:52;;;;;;;13.38;6.60;;;;;;;;;;5013444;28;20034;-76
2022/11/01 12:42:33;;;;;;;13.25;6.78;;;;;;;;;;5014839;28;20032;-74
2022/11/01 12:45:09;;;;;;;11.50;7.05;;;;;;;;;;5015496;28;20132;-74
2022/11/01 12:47:41;;;;;;;13.65;6.95;;;;;;;;;;5015062;28;20092;-75
2022/11/01 12:50:21;;;;;;;13.30;6.93;;;;;;;;;;5014771;28;20045;-74
2022/11/01 12:52:58;;;;;;;16.95;7.55;;;;;;;;;;5015695;28;20112;-74
2022/11/01 12:55:38;;;;;;;15.48;7.97;;;;;;;;;;5014701;28;20033;-75
2022/11/01 12:58:09;;;;;;;11.32;7.03;;;;;;;;;;5015000;28;20436;-74
2022/11/01 13:00:54;;;;;;;11.00;6.15;;;;;;;;;;5014820;28;20037;-74
2022/11/01 13:03:41;;;;;;;13.98;8.18;;;;;;;;;;5014784;28;20037;-73
2022/11/01 13:06:25;;;;;;;12.40;6.97;;;;;;;;;;5014537;28;20034;-73
2022/11/01 13:09:18;;;;;;;21.13;7.30;;;;;;;;;;5014556;28;20379;-73
2022/11/01 13:11:59;;;;;;;12.65;6.65;;;;;;;;;;5013209;28;20082;-73
2022/11/01 13:14:43;;;;;;;11.23;6.82;;;;;;;;;;5014025;28;20041;-73
2022/11/01 13:17:23;;;;;;;15.98;7.85;;;;;;;;;;5014324;28;20030;-73
2022/11/01 13:20:17;;;;;;;13.43;6.97;;;;;;;;;;5022590;28;20048;-72
2022/11/01 13:23:16;;;;;;;12.48;8.43;;;;;;;;;;5034056;28;20044;-74
2022/11/01 13:25:48;;;;;;;15.02;7.82;;;;;;;;;;5028121;28;20391;-74
2022/11/01 13:28:28;;;;;;;16.77;8.23;;;;;;;;;;5033536;28;20048;-74
2022/11/01 13:31:20;;;;;;;15.60;9.52;;;;;;;;;;5034043;28;20073;-74
2022/11/01 13:33:55;;;;;;;31.00;19.98;;;;;;;;;;5033447;28;20132;-74
2022/11/01 13:36:38;;;;;;;14.32;8.55;;;;;;;;;;5033781;28;20044;-73
2022/11/01 13:39:24;;;;;;;;;;;;;;;;;;5034437;28;20033;-74
2022/11/01 13:42:07;;;;;;;13.07;7.40;;;;;;;;;;5032424;28;19945;-74
2022/11/01 13:44:42;;;;;;;26.35;10.18;;;;;;;;;;5035828;28;20508;-75
2022/11/01 13:47:08;;;;;;;15.23;6.40;;;;;;;;;;5051848;28;20112;-72
2022/11/01 13:49:46;;;;;;;13.05;7.32;;;;;;;;;;5053628;28;20109;-72
2022/11/01 13:52:19;;;;;;;11.93;5.57;;;;;;;;;;5052555;28;20048;-72
2022/11/01 13:54:52;;;;;;;11.82;6.18;;;;;;;;;;5039143;28;20037;-72
2022/11/01 13:57:23;;;;;;;12.77;5.47;;;;;;;;;;5033444;28;20036;-73
2022/11/01 13:59:49;;;;;;;15.35;5.82;;;;;;;;;;5033111;28;20029;-73
2022/11/01 14:02:27;;;;;;;10.88;5.93;;;;;;;;;;5033477;28;20032;-73
2022/11/01 14:05:11;;;;;;;15.13;5.93;;;;;;;;;;5033224;28;20040;-73
2022/11/01 14:07:43;;;;;;;13.00;5.70;;;;;;;;;;5032744;28;20065;-74
2022/11/01 14:10:32;;;;;;;10.70;5.75;;;;;;;;;;5033006;28;20045;-72
2022/11/01 14:13:07;;;;;;;13.07;5.82;;;;;;;;;;5032713;28;20033;-73
2022/11/01 14:15:52;;;;;;;12.30;6.38;;;;;;;;;;5032922;28;20064;-73
2022/11/01 14:18:18;;;;;;;14.25;5.65;;;;;;;;;;5032890;28;20022;-72
2022/11/01 14:20:45;;;;;;;9.38;5.35;;;;;;;;;;5032202;28;20029;-72
2022/11/01 14:23:26;;;;;;;10.32;5.45;;;;;;;;;;5032591;28;20033;-72
2022/11/01 14:26:17;;;;;;;13.65;5.95;;;;;;;;;;5032371;28;20053;-73
2022/11/01 14:28:45;;;;;;;15.75;5.75;;;;;;;;;;5032548;28;20049;-73
2022/11/01 14:31:12;;;;;;;11.32;5.13;;;;;;;;;;5031834;28;20152;-75
2022/11/01 14:33:38;;;;;;;13.50;5.30;;;;;;;;;;5029853;28;20037;-72
2022/11/01 14:36:09;;;;;;;14.25;5.82;;;;;;;;;;5027002;28;20025;-75
2022/11/01 14:38:46;;;;;;;10.52;5.38;;;;;;;;;;5024066;28;20460;-73
2022/11/01 14:41:13;;;;;;;9.88;5.43;;;;;;;;;;5021057;28;20433;-73
2022/11/01 14:43:53;;;;;;;11.70;5.40;;;;;;;;;;5043949;28;20026;-73
2022/11/01 14:46:24;;;;;;;13.13;5.55;;;;;;;;;;5027256;28;20055;-72
2022/11/01 14:49:04;;;;;;;10.95;5.90;;;;;;;;;;5026912;28;20029;-72
2022/11/01 14:51:44;;;;;;;13.88;6.03;;;;;;;;;;5012627;28;20045;-71
2022/11/01 14:54:27;;;;;;;16.80;6.80;;;;;;;;;;5027638;28;20188;-72